createdAt,value
2023-02-19T00:00:22.931Z,10.21
2023-02-19T00:01:22.952Z,10.21
2023-02-19T00:02:22.771Z,10.20
2023-02-19T00:03:22.817Z,10.20
2023-02-19T00:04:23.060Z,10.19
2023-02-19T00:05:22.741Z,10.18
2023-02-19T00:06:23.123Z,10.17
2023-02-19T00:07:22.880Z,10.16
2023-02-19T00:08:23.199Z,10.15
2023-02-19T00:09:22.671Z,10.14
2023-02-19T00:10:22.681Z,10.13
2023-02-19T00:11:22.640Z,10.12
2023-02-19T00:12:22.649Z,10.11
2023-02-19T00:13:22.641Z,10.11
2023-02-19T00:14:22.645Z,10.10
2023-02-19T00:15:22.653Z,10.09
2023-02-19T00:16:22.766Z,10.08
2023-02-19T00:17:22.584Z,10.06
2023-02-19T00:18:22.573Z,10.04
2023-02-19T00:19:22.567Z,10.03
2023-02-19T00:20:22.658Z,10.02
2023-02-19T00:21:22.533Z,10.01
2023-02-19T00:22:22.534Z,10.00
2023-02-19T00:23:22.679Z,10.00
2023-02-19T00:24:22.516Z,10.00
2023-02-19T00:25:22.654Z,10.00
2023-02-19T00:26:22.487Z,10.00
2023-02-19T00:27:22.451Z,10.00
2023-02-19T00:28:22.484Z,9.99
2023-02-19T00:29:22.458Z,9.99
2023-02-19T00:30:22.467Z,9.98
2023-02-19T00:31:22.774Z,9.98
2023-02-19T00:32:22.688Z,9.98
2023-02-19T00:33:22.391Z,9.98
2023-02-19T00:34:22.396Z,9.98
2023-02-19T00:35:22.376Z,9.99
2023-02-19T00:36:22.668Z,9.99
2023-02-19T00:37:22.582Z,9.99
2023-02-19T00:38:22.328Z,9.98
2023-02-19T00:39:22.667Z,9.98
2023-02-19T00:40:22.538Z,9.98
2023-02-19T00:41:22.318Z,9.97
2023-02-19T00:42:22.277Z,9.97
2023-02-19T00:43:22.288Z,9.96
2023-02-19T00:44:22.335Z,9.95
2023-02-19T00:45:22.284Z,9.94
2023-02-19T00:46:22.258Z,9.93
2023-02-19T00:47:22.477Z,9.93
2023-02-19T00:48:22.209Z,9.92
2023-02-19T00:49:22.291Z,9.91
2023-02-19T00:50:22.190Z,9.90
2023-02-19T00:51:22.208Z,9.90
2023-02-19T00:52:22.636Z,9.89
2023-02-19T00:53:22.389Z,9.88
2023-02-19T00:54:22.151Z,9.88
2023-02-19T00:55:22.684Z,9.87
2023-02-19T00:56:22.138Z,9.86
2023-02-19T00:57:22.148Z,9.85
2023-02-19T00:58:22.089Z,9.84
2023-02-19T00:59:22.130Z,9.84
2023-02-19T01:00:22.125Z,9.83
2023-02-19T01:01:22.200Z,9.83
2023-02-19T01:02:22.069Z,9.82
2023-02-19T01:03:22.235Z,9.80
2023-02-19T01:04:22.082Z,9.79
2023-02-19T01:05:22.086Z,9.77
2023-02-19T01:06:22.003Z,9.76
2023-02-19T01:07:22.017Z,9.75
2023-02-19T01:08:22.054Z,9.74
2023-02-19T01:09:22.396Z,9.73
2023-02-19T01:10:21.956Z,9.73
2023-02-19T01:11:22.472Z,9.73
2023-02-19T01:12:22.477Z,9.73
2023-02-19T01:13:22.518Z,9.73
2023-02-19T01:14:21.909Z,9.73
2023-02-19T01:15:21.931Z,9.74
2023-02-19T01:16:22.536Z,9.74
2023-02-19T01:17:22.390Z,9.74
2023-02-19T01:18:21.861Z,9.74
2023-02-19T01:19:21.876Z,9.74
2023-02-19T01:20:22.138Z,9.74
2023-02-19T01:21:22.636Z,9.74
2023-02-19T01:22:21.817Z,9.73
2023-02-19T01:23:21.826Z,9.73
2023-02-19T01:24:22.700Z,9.73
2023-02-19T01:25:22.710Z,9.73
2023-02-19T01:26:22.668Z,9.73
2023-02-19T01:27:21.784Z,9.72
2023-02-19T01:28:21.745Z,9.72
2023-02-19T01:29:21.739Z,9.72
2023-02-19T01:30:21.757Z,9.71
2023-02-19T01:31:21.879Z,9.71
2023-02-19T01:32:21.776Z,9.70
2023-02-19T01:33:21.716Z,9.69
2023-02-19T01:34:21.663Z,9.69
2023-02-19T01:35:21.694Z,9.68
2023-02-19T01:36:21.695Z,9.68
2023-02-19T01:37:21.707Z,9.67
2023-02-19T01:38:21.621Z,9.67
2023-02-19T01:39:21.634Z,9.66
2023-02-19T01:40:21.708Z,9.65
2023-02-19T01:41:21.598Z,9.65
2023-02-19T01:42:21.567Z,9.65
2023-02-19T01:43:21.582Z,9.64
2023-02-19T01:44:21.573Z,9.64
2023-02-19T01:45:21.713Z,9.63
2023-02-19T01:46:21.575Z,9.63
2023-02-19T01:47:21.547Z,9.62
2023-02-19T01:48:21.574Z,9.61
2023-02-19T01:49:21.509Z,9.61
2023-02-19T01:50:21.478Z,9.60
2023-02-19T01:51:21.502Z,9.59
2023-02-19T01:52:21.477Z,9.59
2023-02-19T01:53:21.466Z,9.57
2023-02-19T01:54:21.457Z,9.56
2023-02-19T01:55:21.430Z,9.55
2023-02-19T01:56:21.716Z,9.54
2023-02-19T01:57:21.727Z,9.54
2023-02-19T01:58:21.381Z,9.53
2023-02-19T01:59:21.404Z,9.52
2023-02-19T02:00:21.381Z,9.52
2023-02-19T02:01:21.362Z,9.51
2023-02-19T02:02:21.365Z,9.50
2023-02-19T02:03:21.330Z,9.49
2023-02-19T02:04:21.733Z,9.47
2023-02-19T02:05:21.336Z,9.46
2023-02-19T02:06:21.301Z,9.45
2023-02-19T02:07:21.293Z,9.44
2023-02-19T02:08:21.743Z,9.42
2023-02-19T02:09:21.295Z,9.41
2023-02-19T02:10:21.241Z,9.39
2023-02-19T02:11:21.275Z,9.37
2023-02-19T02:12:21.234Z,9.35
2023-02-19T02:13:21.255Z,9.33
2023-02-19T02:14:21.205Z,9.31
2023-02-19T02:15:21.317Z,9.30
2023-02-19T02:16:21.376Z,9.29
2023-02-19T02:17:21.377Z,9.27
2023-02-19T02:18:21.155Z,9.26
2023-02-19T02:19:21.162Z,9.25
2023-02-19T02:20:21.467Z,9.24
2023-02-19T02:21:21.146Z,9.23
2023-02-19T02:22:21.530Z,9.22
2023-02-19T02:23:21.108Z,9.21
2023-02-19T02:24:21.091Z,9.20
2023-02-19T02:25:21.590Z,9.20
2023-02-19T02:26:21.098Z,9.19
2023-02-19T02:27:21.081Z,9.18
2023-02-19T02:28:21.277Z,9.18
2023-02-19T02:29:21.756Z,9.18
2023-02-19T02:30:21.069Z,9.17
2023-02-19T02:31:21.182Z,9.17
2023-02-19T02:32:21.865Z,9.16
2023-02-19T02:33:21.004Z,9.16
2023-02-19T02:34:20.972Z,9.15
2023-02-19T02:35:20.978Z,9.14
2023-02-19T02:36:21.018Z,9.14
2023-02-19T02:37:21.048Z,9.13
2023-02-19T02:38:21.079Z,9.13
2023-02-19T02:39:21.112Z,9.12
2023-02-19T02:40:21.142Z,9.12
2023-02-19T02:41:21.208Z,9.11
2023-02-19T02:42:20.878Z,9.10
2023-02-19T02:43:20.890Z,9.09
2023-02-19T02:44:21.270Z,9.08
2023-02-19T02:45:20.849Z,9.08
2023-02-19T02:46:20.868Z,9.06
2023-02-19T02:47:21.371Z,9.05
2023-02-19T02:48:21.427Z,9.05
2023-02-19T02:49:20.810Z,9.04
2023-02-19T02:50:20.791Z,9.03
2023-02-19T02:51:20.797Z,9.03
2023-02-19T02:52:21.434Z,9.02
2023-02-19T02:53:20.797Z,9.02
2023-02-19T02:54:20.739Z,9.01
2023-02-19T02:55:20.769Z,9.01
2023-02-19T02:56:20.772Z,9.00
2023-02-19T02:57:20.721Z,9.00
2023-02-19T02:58:20.720Z,9.00
2023-02-19T02:59:20.693Z,8.99
2023-02-19T03:00:20.778Z,8.99
2023-02-19T03:01:20.806Z,8.99
2023-02-19T03:02:20.867Z,8.98
2023-02-19T03:03:20.779Z,8.98
2023-02-19T03:04:20.662Z,8.98
2023-02-19T03:05:20.790Z,8.98
2023-02-19T03:06:20.781Z,8.98
2023-02-19T03:07:20.632Z,8.97
2023-02-19T03:08:20.867Z,8.97
2023-02-19T03:09:20.596Z,8.97
2023-02-19T03:10:20.782Z,8.97
2023-02-19T03:11:20.710Z,8.97
2023-02-19T03:12:20.780Z,8.96
2023-02-19T03:13:20.546Z,8.96
2023-02-19T03:14:21.241Z,8.96
2023-02-19T03:15:20.506Z,8.95
2023-02-19T03:16:21.341Z,8.95
2023-02-19T03:17:20.792Z,8.95
2023-02-19T03:18:20.797Z,8.94
2023-02-19T03:19:20.798Z,8.94
2023-02-19T03:20:20.787Z,8.93
2023-02-19T03:21:20.806Z,8.93
2023-02-19T03:22:20.407Z,8.92
2023-02-19T03:23:20.435Z,8.91
2023-02-19T03:24:20.448Z,8.91
2023-02-19T03:25:20.486Z,8.90
2023-02-19T03:26:20.511Z,8.90
2023-02-19T03:27:20.590Z,8.89
2023-02-19T03:28:20.591Z,8.88
2023-02-19T03:29:20.623Z,8.88
2023-02-19T03:30:20.750Z,8.87
2023-02-19T03:31:20.417Z,8.87
2023-02-19T03:32:20.793Z,8.87
2023-02-19T03:33:20.727Z,8.86
2023-02-19T03:34:20.758Z,8.86
2023-02-19T03:35:20.714Z,8.86
2023-02-19T03:36:20.801Z,8.85
2023-02-19T03:37:20.647Z,8.84
2023-02-19T03:38:20.392Z,8.83
2023-02-19T03:39:20.798Z,8.83
2023-02-19T03:40:20.934Z,8.82
2023-02-19T03:41:20.308Z,8.82
2023-02-19T03:42:20.187Z,8.81
2023-02-19T03:43:20.193Z,8.81
2023-02-19T03:44:20.220Z,8.79
2023-02-19T03:45:20.252Z,8.78
2023-02-19T03:46:20.119Z,8.76
2023-02-19T03:47:20.321Z,8.75
2023-02-19T03:48:20.364Z,8.75
2023-02-19T03:49:20.112Z,8.74
2023-02-19T03:50:20.422Z,8.73
2023-02-19T03:51:20.460Z,8.72
2023-02-19T03:52:20.491Z,8.71
2023-02-19T03:53:20.081Z,8.70
2023-02-19T03:54:20.048Z,8.69
2023-02-19T03:55:20.052Z,8.68
2023-02-19T03:56:20.625Z,8.67
2023-02-19T03:57:20.331Z,8.67
2023-02-19T03:58:20.685Z,8.66
2023-02-19T03:59:20.716Z,8.66
2023-02-19T04:00:20.649Z,8.66
2023-02-19T04:01:20.799Z,8.65
2023-02-19T04:02:20.024Z,8.65
2023-02-19T04:03:20.304Z,8.65
2023-02-19T04:04:20.863Z,8.64
2023-02-19T04:05:19.948Z,8.63
2023-02-19T04:06:20.145Z,8.63
2023-02-19T04:07:20.826Z,8.62
2023-02-19T04:08:20.825Z,8.62
2023-02-19T04:09:20.435Z,8.61
2023-02-19T04:10:19.878Z,8.61
2023-02-19T04:11:19.857Z,8.60
2023-02-19T04:12:19.857Z,8.60
2023-02-19T04:13:19.850Z,8.60
2023-02-19T04:14:19.840Z,8.60
2023-02-19T04:15:19.855Z,8.59
2023-02-19T04:16:19.808Z,8.60
2023-02-19T04:17:19.834Z,8.60
2023-02-19T04:18:19.786Z,8.60
2023-02-19T04:19:19.835Z,8.61
2023-02-19T04:20:19.825Z,8.61
2023-02-19T04:21:19.840Z,8.62
2023-02-19T04:22:19.787Z,8.63
2023-02-19T04:23:19.751Z,8.63
2023-02-19T04:24:19.843Z,8.64
2023-02-19T04:25:19.840Z,8.65
2023-02-19T04:26:19.842Z,8.66
2023-02-19T04:27:19.697Z,8.67
2023-02-19T04:28:19.676Z,8.68
2023-02-19T04:29:19.658Z,8.69
2023-02-19T04:30:19.772Z,8.70
2023-02-19T04:31:19.815Z,8.71
2023-02-19T04:32:19.797Z,8.71
2023-02-19T04:33:19.853Z,8.72
2023-02-19T04:34:19.588Z,8.73
2023-02-19T04:35:19.575Z,8.73
2023-02-19T04:36:19.742Z,8.74
2023-02-19T04:37:19.846Z,8.75
2023-02-19T04:38:19.576Z,8.76
2023-02-19T04:39:19.592Z,8.76
2023-02-19T04:40:19.833Z,8.77
2023-02-19T04:41:19.514Z,8.77
2023-02-19T04:42:19.484Z,8.79
2023-02-19T04:43:19.849Z,8.80
2023-02-19T04:44:19.840Z,8.81
2023-02-19T04:45:19.842Z,8.82
2023-02-19T04:46:19.897Z,8.82
2023-02-19T04:47:19.446Z,8.83
2023-02-19T04:48:19.850Z,8.84
2023-02-19T04:49:19.504Z,8.85
2023-02-19T04:50:19.404Z,8.86
2023-02-19T04:51:19.825Z,8.88
2023-02-19T04:52:19.854Z,8.89
2023-02-19T04:53:19.859Z,8.91
2023-02-19T04:54:19.856Z,8.92
2023-02-19T04:55:19.339Z,8.93
2023-02-19T04:56:19.382Z,8.93
2023-02-19T04:57:19.409Z,8.94
2023-02-19T04:58:19.329Z,8.94
2023-02-19T04:59:19.281Z,8.94
2023-02-19T05:00:19.521Z,8.94
2023-02-19T05:01:19.328Z,8.94
2023-02-19T05:02:19.594Z,8.94
2023-02-19T05:03:19.242Z,8.94
2023-02-19T05:04:19.708Z,8.94
2023-02-19T05:05:19.225Z,8.94
2023-02-19T05:06:19.214Z,8.94
2023-02-19T05:07:19.212Z,8.94
2023-02-19T05:08:19.814Z,8.93
2023-02-19T05:09:19.172Z,8.93
2023-02-19T05:10:19.873Z,8.93
2023-02-19T05:11:19.149Z,8.93
2023-02-19T05:12:19.307Z,8.92
2023-02-19T05:13:19.163Z,8.92
2023-02-19T05:14:19.128Z,8.91
2023-02-19T05:15:19.119Z,8.91
2023-02-19T05:16:19.234Z,8.90
2023-02-19T05:17:19.094Z,8.89
2023-02-19T05:18:19.108Z,8.89
2023-02-19T05:19:19.325Z,8.88
2023-02-19T05:20:19.360Z,8.87
2023-02-19T05:21:19.032Z,8.86
2023-02-19T05:22:19.425Z,8.86
2023-02-19T05:23:19.446Z,8.85
2023-02-19T05:24:19.491Z,8.85
2023-02-19T05:25:18.989Z,8.84
2023-02-19T05:26:19.680Z,8.84
2023-02-19T05:27:18.972Z,8.84
2023-02-19T05:28:18.983Z,8.84
2023-02-19T05:29:18.968Z,8.84
2023-02-19T05:30:18.975Z,8.84
2023-02-19T05:31:19.824Z,8.84
2023-02-19T05:32:19.735Z,8.84
2023-02-19T05:33:18.904Z,8.84
2023-02-19T05:34:18.929Z,8.84
2023-02-19T05:35:18.869Z,8.84
2023-02-19T05:36:18.890Z,8.84
2023-02-19T05:37:18.845Z,8.85
2023-02-19T05:38:18.855Z,8.85
2023-02-19T05:39:18.859Z,8.85
2023-02-19T05:40:18.879Z,8.85
2023-02-19T05:41:18.809Z,8.86
2023-02-19T05:42:18.800Z,8.86
2023-02-19T05:43:18.786Z,8.86
2023-02-19T05:44:18.797Z,8.86
2023-02-19T05:45:18.781Z,8.86
2023-02-19T05:46:18.780Z,8.86
2023-02-19T05:47:19.189Z,8.87
2023-02-19T05:48:18.890Z,8.87
2023-02-19T05:49:18.717Z,8.87
2023-02-19T05:50:18.709Z,8.87
2023-02-19T05:51:18.707Z,8.87
2023-02-19T05:52:18.692Z,8.87
2023-02-19T05:53:18.660Z,8.87
2023-02-19T05:54:18.673Z,8.87
2023-02-19T05:55:19.464Z,8.87
2023-02-19T05:56:18.902Z,8.87
2023-02-19T05:57:18.618Z,8.88
2023-02-19T05:58:18.630Z,8.88
2023-02-19T05:59:18.593Z,8.88
2023-02-19T06:00:18.647Z,8.88
2023-02-19T06:01:18.588Z,8.88
2023-02-19T06:02:18.570Z,8.88
2023-02-19T06:03:18.773Z,8.88
2023-02-19T06:04:18.801Z,8.88
2023-02-19T06:05:18.520Z,8.88
2023-02-19T06:06:18.554Z,8.88
2023-02-19T06:07:18.509Z,8.88
2023-02-19T06:08:18.525Z,8.87
2023-02-19T06:09:18.497Z,8.87
2023-02-19T06:10:18.479Z,8.87
2023-02-19T06:11:19.026Z,8.86
2023-02-19T06:12:18.467Z,8.86
2023-02-19T06:13:18.433Z,8.86
2023-02-19T06:14:18.450Z,8.86
2023-02-19T06:15:18.414Z,8.86
2023-02-19T06:16:18.981Z,8.85
2023-02-19T06:17:18.389Z,8.85
2023-02-19T06:18:18.389Z,8.85
2023-02-19T06:19:18.381Z,8.84
2023-02-19T06:20:18.384Z,8.84
2023-02-19T06:21:18.358Z,8.84
2023-02-19T06:22:18.354Z,8.85
2023-02-19T06:23:18.320Z,8.86
2023-02-19T06:24:18.536Z,8.87
2023-02-19T06:25:18.301Z,8.89
2023-02-19T06:26:18.321Z,8.90
2023-02-19T06:27:18.284Z,8.92
2023-02-19T06:28:18.293Z,8.94
2023-02-19T06:29:18.257Z,8.95
2023-02-19T06:30:18.296Z,8.97
2023-02-19T06:31:18.836Z,8.99
2023-02-19T06:32:18.441Z,9.01
2023-02-19T06:33:18.201Z,9.05
2023-02-19T06:34:18.215Z,9.09
2023-02-19T06:35:18.895Z,9.12
2023-02-19T06:36:18.952Z,9.14
2023-02-19T06:37:18.166Z,9.16
2023-02-19T06:38:18.166Z,9.18
2023-02-19T06:39:18.929Z,9.19
2023-02-19T06:40:18.937Z,9.20
2023-02-19T06:41:18.127Z,9.20
2023-02-19T06:42:18.414Z,9.20
2023-02-19T06:43:18.110Z,9.20
2023-02-19T06:44:18.137Z,9.20
2023-02-19T06:45:18.068Z,9.19
2023-02-19T06:46:18.112Z,9.18
2023-02-19T06:47:18.057Z,9.18
2023-02-19T06:48:18.245Z,9.18
2023-02-19T06:49:18.139Z,9.18
2023-02-19T06:50:18.019Z,9.17
2023-02-19T06:51:18.489Z,9.17
2023-02-19T06:52:18.020Z,9.17
2023-02-19T06:53:17.994Z,9.17
2023-02-19T06:54:17.997Z,9.19
2023-02-19T06:55:17.961Z,9.19
2023-02-19T06:56:17.956Z,9.20
2023-02-19T06:57:17.932Z,9.20
2023-02-19T06:58:17.932Z,9.19
2023-02-19T06:59:17.941Z,9.18
2023-02-19T07:00:17.947Z,9.17
2023-02-19T07:01:17.931Z,9.17
2023-02-19T07:02:17.887Z,9.16
2023-02-19T07:03:17.869Z,9.15
2023-02-19T07:04:17.915Z,9.15
2023-02-19T07:05:17.839Z,9.14
2023-02-19T07:06:17.836Z,9.14
2023-02-19T07:07:17.963Z,9.14
2023-02-19T07:08:17.826Z,9.13
2023-02-19T07:09:17.808Z,9.14
2023-02-19T07:10:17.794Z,9.13
2023-02-19T07:11:17.946Z,9.13
2023-02-19T07:12:17.776Z,9.13
2023-02-19T07:13:17.744Z,9.12
2023-02-19T07:14:17.748Z,9.12
2023-02-19T07:15:17.950Z,9.11
2023-02-19T07:16:17.749Z,9.11
2023-02-19T07:17:17.695Z,9.10
2023-02-19T07:18:17.695Z,9.10
2023-02-19T07:19:17.678Z,9.09
2023-02-19T07:20:17.697Z,9.09
2023-02-19T07:21:17.636Z,9.09
2023-02-19T07:22:17.647Z,9.09
2023-02-19T07:23:17.958Z,9.09
2023-02-19T07:24:17.630Z,9.09
2023-02-19T07:25:17.612Z,9.09
2023-02-19T07:26:17.966Z,9.09
2023-02-19T07:27:17.580Z,9.09
2023-02-19T07:28:17.594Z,9.09
2023-02-19T07:29:17.564Z,9.09
2023-02-19T07:30:17.595Z,9.10
2023-02-19T07:31:17.723Z,9.10
2023-02-19T07:32:17.561Z,9.10
2023-02-19T07:33:17.505Z,9.11
2023-02-19T07:34:17.531Z,9.12
2023-02-19T07:35:17.484Z,9.13
2023-02-19T07:36:17.508Z,9.14
2023-02-19T07:37:17.457Z,9.15
2023-02-19T07:38:17.459Z,9.16
2023-02-19T07:39:17.885Z,9.18
2023-02-19T07:40:17.919Z,9.19
2023-02-19T07:41:17.423Z,9.20
2023-02-19T07:42:17.941Z,9.21
2023-02-19T07:43:17.392Z,9.23
2023-02-19T07:44:17.394Z,9.24
2023-02-19T07:45:17.381Z,9.25
2023-02-19T07:46:17.393Z,9.26
2023-02-19T07:47:17.483Z,9.27
2023-02-19T07:48:17.351Z,9.27
2023-02-19T07:49:17.334Z,9.28
2023-02-19T07:50:17.335Z,9.28
2023-02-19T07:51:17.323Z,9.28
2023-02-19T07:52:17.312Z,9.29
2023-02-19T07:53:17.283Z,9.29
2023-02-19T07:54:17.288Z,9.30
2023-02-19T07:55:17.758Z,9.31
2023-02-19T07:56:17.811Z,9.32
2023-02-19T07:57:17.233Z,9.33
2023-02-19T07:58:17.226Z,9.34
2023-02-19T07:59:17.226Z,9.35
2023-02-19T08:00:17.222Z,9.36
2023-02-19T08:01:17.260Z,9.36
2023-02-19T08:02:17.219Z,9.37
2023-02-19T08:03:18.012Z,9.37
2023-02-19T08:04:17.169Z,9.37
2023-02-19T08:05:17.137Z,9.37
2023-02-19T08:06:17.140Z,9.38
2023-02-19T08:07:17.124Z,9.38
2023-02-19T08:08:17.112Z,9.39
2023-02-19T08:09:17.082Z,9.39
2023-02-19T08:10:17.084Z,9.40
2023-02-19T08:11:18.002Z,9.40
2023-02-19T08:12:17.995Z,9.40
2023-02-19T08:13:17.034Z,9.41
2023-02-19T08:14:17.044Z,9.41
2023-02-19T08:15:17.018Z,9.41
2023-02-19T08:16:24.119Z,9.42
2023-02-19T08:17:18.100Z,9.42
2023-02-19T08:18:16.992Z,9.43
2023-02-19T08:19:17.007Z,9.43
2023-02-19T08:20:16.968Z,9.43
2023-02-19T08:21:16.947Z,9.44
2023-02-19T08:22:16.950Z,9.44
2023-02-19T08:23:16.933Z,9.44
2023-02-19T08:24:16.938Z,9.44
2023-02-19T08:25:16.910Z,9.44
2023-02-19T08:26:16.918Z,9.45
2023-02-19T08:27:16.924Z,9.45
2023-02-19T08:28:16.874Z,9.46
2023-02-19T08:29:16.852Z,9.48
2023-02-19T08:30:16.904Z,9.49
2023-02-19T08:31:16.925Z,9.51
2023-02-19T08:32:16.876Z,9.53
2023-02-19T08:33:16.825Z,9.55
2023-02-19T08:34:16.816Z,9.58
2023-02-19T08:35:16.810Z,9.60
2023-02-19T08:36:16.786Z,9.62
2023-02-19T08:37:16.744Z,9.64
2023-02-19T08:38:16.777Z,9.66
2023-02-19T08:39:16.858Z,9.68
2023-02-19T08:40:16.721Z,9.69
2023-02-19T08:41:16.707Z,9.70
2023-02-19T08:42:16.717Z,9.70
2023-02-19T08:43:16.684Z,9.69
2023-02-19T08:44:16.714Z,9.68
2023-02-19T08:45:16.655Z,9.68
2023-02-19T08:46:16.688Z,9.68
2023-02-19T08:47:16.638Z,9.68
2023-02-19T08:48:16.636Z,9.68
2023-02-19T08:49:16.634Z,9.68
2023-02-19T08:50:16.609Z,9.68
2023-02-19T08:51:16.610Z,9.67
2023-02-19T08:52:16.591Z,9.66
2023-02-19T08:53:16.571Z,9.65
2023-02-19T08:54:16.586Z,9.64
2023-02-19T08:55:16.538Z,9.64
2023-02-19T08:56:16.534Z,9.64
2023-02-19T08:57:16.640Z,9.63
2023-02-19T08:58:16.542Z,9.63
2023-02-19T08:59:16.504Z,9.63
2023-02-19T09:00:16.511Z,9.62
2023-02-19T09:01:16.534Z,9.63
2023-02-19T09:02:16.469Z,9.63
2023-02-19T09:03:16.437Z,9.63
2023-02-19T09:04:16.479Z,9.64
2023-02-19T09:05:16.418Z,9.65
2023-02-19T09:06:16.409Z,9.66
2023-02-19T09:07:16.773Z,9.67
2023-02-19T09:08:16.382Z,9.68
2023-02-19T09:09:16.403Z,9.69
2023-02-19T09:10:16.369Z,9.70
2023-02-19T09:11:16.375Z,9.71
2023-02-19T09:12:16.337Z,9.72
2023-02-19T09:13:16.343Z,9.73
2023-02-19T09:14:16.339Z,9.74
2023-02-19T09:15:16.515Z,9.74
2023-02-19T09:16:16.291Z,9.74
2023-02-19T09:17:16.287Z,9.74
2023-02-19T09:18:16.265Z,9.75
2023-02-19T09:19:16.286Z,9.76
2023-02-19T09:20:16.267Z,9.77
2023-02-19T09:21:16.275Z,9.78
2023-02-19T09:22:16.237Z,9.79
2023-02-19T09:23:16.766Z,9.80
2023-02-19T09:24:16.220Z,9.81
2023-02-19T09:25:16.219Z,9.81
2023-02-19T09:26:16.178Z,9.82
2023-02-19T09:27:16.182Z,9.82
2023-02-19T09:28:16.145Z,9.84
2023-02-19T09:29:16.158Z,9.85
2023-02-19T09:30:16.197Z,9.86
2023-02-19T09:31:16.942Z,9.88
2023-02-19T09:32:18.722Z,9.89
2023-02-19T09:33:16.112Z,9.91
2023-02-19T09:34:16.076Z,9.92
2023-02-19T09:35:16.101Z,9.94
2023-02-19T09:36:16.122Z,9.96
2023-02-19T09:37:16.070Z,9.98
2023-02-19T09:38:16.041Z,10.00
2023-02-19T09:39:16.823Z,10.02
2023-02-19T09:40:16.023Z,10.04
2023-02-19T09:41:16.066Z,10.05
2023-02-19T09:42:16.064Z,10.07
2023-02-19T09:43:16.006Z,10.08
2023-02-19T09:44:15.976Z,10.10
2023-02-19T09:45:16.002Z,10.12
2023-02-19T09:46:15.992Z,10.14
2023-02-19T09:47:16.092Z,10.16
2023-02-19T09:48:15.919Z,10.18
2023-02-19T09:49:15.948Z,10.20
2023-02-19T09:50:15.903Z,10.22
2023-02-19T09:51:15.914Z,10.24
2023-02-19T09:52:15.870Z,10.25
2023-02-19T09:53:15.876Z,10.27
2023-02-19T09:54:15.852Z,10.28
2023-02-19T09:55:16.081Z,10.30
2023-02-19T09:56:15.842Z,10.31
2023-02-19T09:57:15.852Z,10.31
2023-02-19T09:58:15.800Z,10.32
2023-02-19T09:59:15.806Z,10.34
2023-02-19T10:00:15.771Z,10.35
2023-02-19T10:01:15.847Z,10.36
2023-02-19T10:02:15.759Z,10.38
2023-02-19T10:03:16.028Z,10.40
2023-02-19T10:04:15.727Z,10.42
2023-02-19T10:05:15.773Z,10.43
2023-02-19T10:06:15.722Z,10.45
2023-02-19T10:07:15.737Z,10.46
2023-02-19T10:08:15.690Z,10.48
2023-02-19T10:09:15.688Z,10.49
2023-02-19T10:10:15.666Z,10.50
2023-02-19T10:11:15.728Z,10.51
2023-02-19T10:12:15.640Z,10.52
2023-02-19T10:13:15.629Z,10.52
2023-02-19T10:14:15.627Z,10.52
2023-02-19T10:15:15.621Z,10.51
2023-02-19T10:16:15.667Z,10.50
2023-02-19T10:17:15.591Z,10.49
2023-02-19T10:18:15.559Z,10.47
2023-02-19T10:19:16.097Z,10.45
2023-02-19T10:20:15.541Z,10.45
2023-02-19T10:21:15.545Z,10.45
2023-02-19T10:22:15.531Z,10.45
2023-02-19T10:23:15.523Z,10.45
2023-02-19T10:24:15.511Z,10.45
2023-02-19T10:25:15.508Z,10.45
2023-02-19T10:26:15.456Z,10.45
2023-02-19T10:27:15.550Z,10.44
2023-02-19T10:28:15.450Z,10.44
2023-02-19T10:29:15.458Z,10.43
2023-02-19T10:30:15.469Z,10.44
2023-02-19T10:31:15.791Z,10.44
2023-02-19T10:32:15.451Z,10.45
2023-02-19T10:33:15.414Z,10.46
2023-02-19T10:34:15.375Z,10.47
2023-02-19T10:35:15.629Z,10.47
2023-02-19T10:36:15.364Z,10.48
2023-02-19T10:37:15.524Z,10.49
2023-02-19T10:38:15.335Z,10.49
2023-02-19T10:39:15.335Z,10.48
2023-02-19T10:40:15.337Z,10.48
2023-02-19T10:41:15.323Z,10.47
2023-02-19T10:42:15.302Z,10.47
2023-02-19T10:43:15.312Z,10.48
2023-02-19T10:44:15.252Z,10.48
2023-02-19T10:45:15.277Z,10.49
2023-02-19T10:46:15.251Z,10.50
2023-02-19T10:47:15.240Z,10.51
2023-02-19T10:48:15.244Z,10.52
2023-02-19T10:49:15.220Z,10.53
2023-02-19T10:50:15.205Z,10.54
2023-02-19T10:51:15.567Z,10.55
2023-02-19T10:52:15.171Z,10.55
2023-02-19T10:53:15.634Z,10.56
2023-02-19T10:54:15.151Z,10.57
2023-02-19T10:55:15.152Z,10.58
2023-02-19T10:56:15.139Z,10.59
2023-02-19T10:57:15.145Z,10.59
2023-02-19T10:58:15.115Z,10.60
2023-02-19T10:59:15.135Z,10.61
2023-02-19T11:00:15.121Z,10.62
2023-02-19T11:01:15.100Z,10.62
2023-02-19T11:02:15.114Z,10.63
2023-02-19T11:03:15.055Z,10.63
2023-02-19T11:04:15.055Z,10.64
2023-02-19T11:05:15.173Z,10.64
2023-02-19T11:06:15.102Z,10.65
2023-02-19T11:07:15.142Z,10.66
2023-02-19T11:08:14.987Z,10.66
2023-02-19T11:09:15.856Z,10.67
2023-02-19T11:10:15.124Z,10.67
2023-02-19T11:11:14.971Z,10.67
2023-02-19T11:12:15.212Z,10.67
2023-02-19T11:13:15.980Z,10.67
2023-02-19T11:14:15.883Z,10.67
2023-02-19T11:15:14.926Z,10.67
2023-02-19T11:16:14.911Z,10.67
2023-02-19T11:17:14.926Z,10.66
2023-02-19T11:18:14.879Z,10.65
2023-02-19T11:19:14.874Z,10.63
2023-02-19T11:20:14.863Z,10.60
2023-02-19T11:21:14.847Z,10.59
2023-02-19T11:22:14.840Z,10.57
2023-02-19T11:23:15.155Z,10.57
2023-02-19T11:24:14.797Z,10.57
2023-02-19T11:25:15.239Z,10.57
2023-02-19T11:26:15.134Z,10.57
2023-02-19T11:27:14.778Z,10.57
2023-02-19T11:28:14.748Z,10.57
2023-02-19T11:29:14.752Z,10.57
2023-02-19T11:30:14.791Z,10.56
2023-02-19T11:31:15.262Z,10.55
2023-02-19T11:32:14.862Z,10.54
2023-02-19T11:33:14.735Z,10.53
2023-02-19T11:34:14.678Z,10.53
2023-02-19T11:35:14.973Z,10.54
2023-02-19T11:36:14.681Z,10.54
2023-02-19T11:37:14.781Z,10.54
2023-02-19T11:38:14.647Z,10.55
2023-02-19T11:39:15.087Z,10.55
2023-02-19T11:40:14.620Z,10.54
2023-02-19T11:41:14.652Z,10.52
2023-02-19T11:42:14.661Z,10.48
2023-02-19T11:43:14.599Z,10.43
2023-02-19T11:44:14.584Z,10.37
2023-02-19T11:45:14.578Z,10.32
2023-02-19T11:46:14.562Z,10.28
2023-02-19T11:47:15.168Z,10.24
2023-02-19T11:48:14.526Z,10.20
2023-02-19T11:49:14.526Z,10.15
2023-02-19T11:50:14.546Z,10.09
2023-02-19T11:51:14.524Z,10.04
2023-02-19T11:52:14.494Z,9.97
2023-02-19T11:53:14.488Z,9.92
2023-02-19T11:54:14.445Z,9.88
2023-02-19T11:55:15.171Z,9.85
2023-02-19T11:56:15.166Z,9.83
2023-02-19T11:57:14.458Z,9.82
2023-02-19T11:58:14.421Z,9.80
2023-02-19T11:59:14.427Z,9.79
2023-02-19T12:00:14.522Z,9.78
2023-02-19T12:01:14.419Z,9.77
2023-02-19T12:02:14.366Z,9.76
2023-02-19T12:03:14.481Z,9.74
2023-02-19T12:04:14.356Z,9.73
2023-02-19T12:05:14.350Z,9.71
2023-02-19T12:06:14.304Z,9.69
2023-02-19T12:07:16.484Z,9.66
2023-02-19T12:08:14.285Z,9.63
2023-02-19T12:09:14.312Z,9.61
2023-02-19T12:10:14.262Z,9.60
2023-02-19T12:11:14.403Z,9.59
2023-02-19T12:12:14.253Z,9.57
2023-02-19T12:13:14.242Z,9.55
2023-02-19T12:14:14.834Z,9.53
2023-02-19T12:15:14.202Z,9.51
2023-02-19T12:16:14.363Z,9.50
2023-02-19T12:17:14.341Z,9.49
2023-02-19T12:18:14.161Z,9.48
2023-02-19T12:19:14.205Z,9.47
2023-02-19T12:20:14.193Z,9.46
2023-02-19T12:21:14.154Z,9.45
2023-02-19T12:22:14.133Z,9.44
2023-02-19T12:23:14.124Z,9.44
2023-02-19T12:24:14.094Z,9.43
2023-02-19T12:25:14.135Z,9.43
2023-02-19T12:26:14.529Z,9.43
2023-02-19T12:27:14.203Z,9.43
2023-02-19T12:28:14.047Z,9.44
2023-02-19T12:29:14.051Z,9.46
2023-02-19T12:30:14.736Z,9.47
2023-02-19T12:31:14.080Z,9.50
2023-02-19T12:32:13.993Z,9.52
2023-02-19T12:33:14.013Z,9.55
2023-02-19T12:34:13.991Z,9.57
2023-02-19T12:35:14.186Z,9.59
2023-02-19T12:36:14.031Z,9.62
2023-02-19T12:37:13.955Z,9.64
2023-02-19T12:38:14.890Z,9.66
2023-02-19T12:39:14.194Z,9.69
2023-02-19T12:40:13.908Z,9.72
2023-02-19T12:41:14.705Z,9.76
2023-02-19T12:42:14.202Z,9.80
2023-02-19T12:43:14.191Z,9.85
2023-02-19T12:44:14.192Z,9.91
2023-02-19T12:45:13.863Z,9.96
2023-02-19T12:46:14.208Z,10.00
2023-02-19T12:47:13.857Z,10.04
2023-02-19T12:48:13.814Z,10.08
2023-02-19T12:49:13.952Z,10.12
2023-02-19T12:50:13.994Z,10.15
2023-02-19T12:51:14.035Z,10.18
2023-02-19T12:52:13.791Z,10.21
2023-02-19T12:53:13.808Z,10.24
2023-02-19T12:54:14.127Z,10.28
2023-02-19T12:55:14.171Z,10.31
2023-02-19T12:56:13.778Z,10.34
2023-02-19T12:57:13.741Z,10.36
2023-02-19T12:58:14.263Z,10.38
2023-02-19T12:59:13.889Z,10.40
2023-02-19T13:00:13.726Z,10.43
2023-02-19T13:01:14.404Z,10.46
2023-02-19T13:02:13.725Z,10.49
2023-02-19T13:03:13.692Z,10.51
2023-02-19T13:04:13.626Z,10.52
2023-02-19T13:05:13.762Z,10.53
2023-02-19T13:06:14.212Z,10.53
2023-02-19T13:07:13.826Z,10.53
2023-02-19T13:08:13.592Z,10.53
2023-02-19T13:09:13.883Z,10.53
2023-02-19T13:10:13.906Z,10.52
2023-02-19T13:11:14.268Z,10.51
2023-02-19T13:12:13.541Z,10.50